Главная страница
METAR-TAF:

METAR-TAF

Аэропорты :

Кордова, Аргентина

широта: 31-19S, долгота: 064-13W, высота над уровнем моря: 484 м

Текущие метеонаблюдения

Эта сводка был подготовлена 18 минут назад, в 23:00 UTC
Ветер 7 Узел от южный
Температура 10°C
Влажность 32%
Давление 1019 hPa
Видимость 10 км и более
Нет облачности ниже 1500 м, и нет кучево-дождевой облачности

METAR: SACO 152300Z 18007KT CAVOK 10/M06 Q1019 NOSIG

Время: 20:18 (23:18 UTC)

Прогноз

Эта сводка был подготовлена 6 часа и 18 минут назад, в 17:00 UTC
Прогноз действительный с 15-го 18 UTC до 16-го 18 UTC
Ветер 10 Узел от южный
Видимость 10 км и более
Нет облачности ниже 1500 м, и нет кучево-дождевой облачности
изменения
С 15-го 23 UTC до 16-го 02 UTC
Ветер 5 Узел от западный
изменения
С 16-го 11 UTC до 16-го 13 UTC
Ветер 5 Узел от южный

TAF: SACO 151700Z 1518/1618 18010KT CAVOK TX18/1518Z TN04/1610Z BECMG 1523/1602 27005KT BECMG 1611/1613 18005KT

Метеонаблюдения и прогнозы для более 4000 аэропортов (сводки METAR и TAF).

Имеющиеся станции представлены на карте желтыми и красными точками.

Чтобы увидеть название станции, наведите на нее мышь.

Затем щелкните, чтобы увидеть метеонаблюдения и метеопрогнозы.

Управление картой: чтобы увеличить масштаб, щелкните зеленые кнопки с черным крестиком; чтобы уменьшить масштаб, щелкните зеленую кнопку с тире; для просмотра соседних карт щелкайте зеленые стрелки.


METAR-TAF: